NORTHEAST SUFFOLK  -  Air Quality Alert Air Quality Alert        NORTHERN NASSAU  -  Air Quality Alert Air Quality Alert        NORTHERN QUEENS  -  Air Quality Alert Air Quality Alert        NORTHWEST SUFFOLK  -  Air Quality Alert Air Quality Alert        SOUTHEAST SUFFOLK  -  Air Quality Alert Air Quality Alert        SOUTHERN NASSAU  -  Air Quality Alert Air Quality Alert        SOUTHERN QUEENS  -  Air Quality Alert Air Quality Alert        SOUTHWEST SUFFOLK  -  Air Quality Alert Air Quality Alert      

Active alerts

Northern Queens
  Details for Northern Queens Air Quality Alert
Southern Queens
  Details for Southern Queens Air Quality Alert
Northern Nassau
  Details for Northern Nassau Air Quality Alert
Southern Nassau
  Details for Southern Nassau Air Quality Alert
Northwest Suffolk
  Details for Northwest Suffolk Air Quality Alert
Southwest Suffolk
  Details for Southwest Suffolk Air Quality Alert
Northeast Suffolk
  Details for Northeast Suffolk Air Quality Alert
Southeast Suffolk
  Details for Southeast Suffolk Air Quality Alert


WXM80 ListenWXM80 Stop

You find our weather info also at:

UK Metoffice

WeatherCloud

Weather Underground

Northeastern Weather Network

AWEKAS

Citizen Weather Observer Program (CWOP)

HAMweather, WeatherForYou, PWS Weather


Weather Underground History page Text

Daily Summary for April 23, 2017 Units:  Metric    English   Both
« Previous Day
Next Day »
Daily Weekly Monthly Yearly Custom
  High: Low: Average:
Temperature: 18.8 °C 6.8 °C 11.7 °C
Dew Point: 8.3 °C 4.8 °C 6.2 °C
Humidity: 90 % 42 % 71 %
Wind Speed: 13.2 km/h 0 km/h 2.6 km/h
Wind Gust: 18.5 km/h - -
Wind:- - South
Pressure: 1019.5 hPa 1014.8 hPa -
Precipitation: 0 mm    
Historical Graphs
 
 
Tabular Data for April 23, 2017
Time Temperature Dew Point Pressure Wind Wind Speed Wind Gust Humidity Rainfall Rate (Hourly)
00:02 9.7 °C 6.7 °C 1014.8 hPa NW 2.1 km/h 5.6 km/h 82 % 0 mm
00:08 9.7 °C 6.7 °C 1014.8 hPa NW 4.3 km/h 7.4 km/h 82 % 0 mm
00:13 9.7 °C 6.7 °C 1014.8 hPa NNE 4.2 km/h 16.1 km/h 82 % 0 mm
00:18 9.6 °C 6.5 °C 1014.8 hPa North 4.3 km/h 7.4 km/h 81 % 0 mm
00:23 9.6 °C 6.4 °C 1015.1 hPa North 4.8 km/h 13 km/h 81 % 0 mm
00:28 9.5 °C 6.6 °C 1015.5 hPa NNE 1 km/h 7.4 km/h 82 % 0 mm
00:33 9.5 °C 6.6 °C 1015.5 hPa North 1.1 km/h 3.7 km/h 82 % 0 mm
00:38 9.4 °C 6.5 °C 1015.5 hPa Calm   3.7 km/h 82 % 0 mm
00:43 9.4 °C 6.4 °C 1015.5 hPa Calm     82 % 0 mm
00:48 9.3 °C 6.4 °C 1015.1 hPa NW 1 km/h 5.6 km/h 82 % 0 mm
00:53 9.2 °C 6.5 °C 1015.5 hPa NNW 1.6 km/h 8 km/h 83 % 0 mm
00:58 9.1 °C 6.4 °C 1015.1 hPa NE 1.9 km/h 3.7 km/h 83 % 0 mm
01:03 9.1 °C 6.3 °C 1015.5 hPa NNW 2.3 km/h 5.6 km/h 83 % 0 mm
01:08 9 °C 6.3 °C 1015.5 hPa NNW 1 km/h 7.4 km/h 83 % 0 mm
01:13 8.9 °C 6.3 °C 1015.5 hPa Calm   5.6 km/h 84 % 0 mm
01:18 8.8 °C 6.3 °C 1015.5 hPa NW 1 km/h 3.7 km/h 84 % 0 mm
01:23 8.8 °C 6.2 °C 1015.5 hPa NW 1.1 km/h 3.7 km/h 84 % 0 mm
01:28 8.7 °C 6.2 °C 1015.5 hPa NNW 2.4 km/h 5.6 km/h 84 % 0 mm
01:33 8.7 °C 6.1 °C 1015.8 hPa NE 2.3 km/h 5.6 km/h 84 % 0 mm
01:38 8.6 °C 6.2 °C 1015.5 hPa NE 1.8 km/h 3.7 km/h 85 % 0 mm
01:43 8.6 °C 6 °C 1015.5 hPa Calm   1.9 km/h 84 % 0 mm
01:48 8.5 °C 6.1 °C 1015.5 hPa NW 0.5 km/h 3.7 km/h 85 % 0 mm
01:53 8.4 °C 6 °C 1015.5 hPa NNE 2.1 km/h 5.6 km/h 85 % 0 mm
01:58 8.3 °C 5.9 °C 1015.5 hPa North 0.3 km/h 1.9 km/h 85 % 0 mm
02:03 8.3 °C 5.9 °C 1015.1 hPa North 4.8 km/h 7.4 km/h 85 % 0 mm
02:08 8.3 °C 5.9 °C 1015.1 hPa North 2.9 km/h 5.6 km/h 85 % 0 mm
02:13 8.2 °C 6 °C 1015.5 hPa Calm   1.9 km/h 86 % 0 mm
02:19 8.2 °C 5.9 °C 1015.1 hPa North 0.3 km/h 1.9 km/h 86 % 0 mm
02:24 8.1 °C 5.9 °C 1015.1 hPa NNW 1 km/h 3.7 km/h 86 % 0 mm
02:29 8.1 °C 5.8 °C 1015.5 hPa Calm   3.7 km/h 86 % 0 mm
02:34 8.1 °C 5.8 °C 1015.1 hPa Calm   1.9 km/h 86 % 0 mm
02:39 8.1 °C 5.8 °C 1015.5 hPa NW 1.1 km/h 3.7 km/h 86 % 0 mm
02:44 8 °C 5.8 °C 1015.5 hPa NW 0.2 km/h 1.6 km/h 86 % 0 mm
02:49 8 °C 5.8 °C 1015.5 hPa NW 1.9 km/h 5.6 km/h 86 % 0 mm
02:54 7.9 °C 5.7 °C 1015.5 hPa NW 1 km/h 3.7 km/h 86 % 0 mm
03:04 7.8 °C 5.6 °C 1015.5 hPa NW 0.2 km/h 3.7 km/h 86 % 0 mm
03:09 7.8 °C 5.6 °C 1015.8 hPa NW 0.3 km/h 1.6 km/h 86 % 0 mm
03:14 7.7 °C 5.7 °C 1015.8 hPa NW 0.6 km/h 1.9 km/h 87 % 0 mm
03:19 7.6 °C 5.6 °C 1015.8 hPa NW 1.8 km/h 3.7 km/h 87 % 0 mm
03:24 7.5 °C 5.5 °C 1015.8 hPa NW 1.1 km/h 3.7 km/h 87 % 0 mm
03:34 7.4 °C 5.6 °C 1015.8 hPa Calm   1.9 km/h 88 % 0 mm
03:39 7.4 °C 5.6 °C 1015.8 hPa Calm   1.6 km/h 88 % 0 mm
03:44 7.3 °C 5.4 °C 1015.8 hPa Calm   1.9 km/h 88 % 0 mm
03:49 7.2 °C 5.4 °C 1015.8 hPa NW 0.6 km/h 3.7 km/h 88 % 0 mm
03:54 7.2 °C 5.5 °C 1015.8 hPa Calm   1.9 km/h 89 % 0 mm
03:59 7.1 °C 5.3 °C 1015.5 hPa Calm   1.9 km/h 88 % 0 mm
04:04 7.1 °C 5.4 °C 1015.8 hPa NW 0.5 km/h 1.9 km/h 89 % 0 mm
04:09 7 °C 5.3 °C 1015.8 hPa NW 0.2 km/h 1.9 km/h 89 % 0 mm
04:14 6.9 °C 5.3 °C 1016.1 hPa NW 0.2 km/h 1.9 km/h 89 % 0 mm
04:19 6.9 °C 5.3 °C 1015.8 hPa Calm   1.9 km/h 89 % 0 mm
04:24 6.9 °C 5.4 °C 1016.5 hPa WNW 0.2 km/h 3.2 km/h 90 % 0 mm
04:29 6.9 °C 5.4 °C 1016.5 hPa Calm     90 % 0 mm
04:34 6.9 °C 5.4 °C 1016.5 hPa NNW 2.3 km/h 3.7 km/h 90 % 0 mm
04:39 6.8 °C 5.3 °C 1016.5 hPa NW 0.8 km/h 3.7 km/h 90 % 0 mm
04:44 6.8 °C 5.3 °C 1016.1 hPa NW 0.5 km/h 3.7 km/h 90 % 0 mm
04:49 6.9 °C 5.4 °C 1016.1 hPa North 1.9 km/h 5.6 km/h 90 % 0 mm
04:54 6.9 °C 5.4 °C 1016.5 hPa NNW 0.5 km/h 3.2 km/h 90 % 0 mm
04:59 6.9 °C 5.4 °C 1016.1 hPa Calm   1.9 km/h 90 % 0 mm
05:04 6.9 °C 5.4 °C 1016.5 hPa NNW 0.2 km/h 1.9 km/h 90 % 0 mm
05:09 6.9 °C 5.4 °C 1016.5 hPa Calm   1.9 km/h 90 % 0 mm
05:14 6.9 °C 5.4 °C 1016.5 hPa NNW 2.3 km/h 5.6 km/h 90 % 0 mm
05:19 6.9 °C 5.4 °C 1016.5 hPa North 2.6 km/h 3.7 km/h 90 % 0 mm
05:24 6.9 °C 5.4 °C 1016.8 hPa Calm   1.9 km/h 90 % 0 mm
05:29 7 °C 5.4 °C 1016.8 hPa NNE 0.6 km/h 4.8 km/h 90 % 0 mm
05:34 7 °C 5.4 °C 1016.8 hPa North 2.6 km/h 5.6 km/h 90 % 0 mm
05:40 7 °C 5.4 °C 1016.8 hPa North 5 km/h 9.3 km/h 90 % 0 mm
05:45 7 °C 5.4 °C 1016.8 hPa NNE 4.5 km/h 5.6 km/h 90 % 0 mm
05:50 7 °C 5.4 °C 1016.8 hPa NNE 3.7 km/h 5.6 km/h 90 % 0 mm
05:55 7 °C 5.4 °C 1016.8 hPa NNE 2.1 km/h 3.7 km/h 90 % 0 mm
06:00 7 °C 5.4 °C 1016.8 hPa Calm   1.6 km/h 90 % 0 mm
06:05 7 °C 5.4 °C 1017.2 hPa NNE 2.4 km/h 5.6 km/h 90 % 0 mm
06:10 6.9 °C 5.4 °C 1017.2 hPa North 2.6 km/h 5.6 km/h 90 % 0 mm
06:15 6.9 °C 5.4 °C 1017.5 hPa NNE 5.5 km/h 7.4 km/h 90 % 0 mm
06:20 6.9 °C 5.2 °C 1017.5 hPa NNE 1 km/h 5.6 km/h 89 % 0 mm
06:25 6.9 °C 5.2 °C 1017.5 hPa NNW 2.3 km/h 3.7 km/h 89 % 0 mm
06:30 6.8 °C 5.2 °C 1017.5 hPa NNE 0.2 km/h 1.9 km/h 89 % 0 mm
06:35 6.8 °C 5.2 °C 1017.5 hPa NNE 0.6 km/h 5.6 km/h 89 % 0 mm
06:40 6.8 °C 5.2 °C 1017.8 hPa NNE 4 km/h 7.4 km/h 89 % 0 mm
06:45 6.8 °C 5.1 °C 1018.2 hPa NNE 4.8 km/h 8 km/h 89 % 0 mm
06:50 6.8 °C 5.1 °C 1018.2 hPa North 3.1 km/h 5.6 km/h 89 % 0 mm
06:55 6.8 °C 5.1 °C 1018.2 hPa North 2.3 km/h 5.6 km/h 89 % 0 mm
07:00 6.8 °C 5.1 °C 1018.2 hPa NNE 4.5 km/h 5.6 km/h 89 % 0 mm
07:05 6.9 °C 5.4 °C 1017.8 hPa North 4 km/h 5.6 km/h 90 % 0 mm
07:10 7.1 °C 5.6 °C 1018.2 hPa North 2.7 km/h 5.6 km/h 90 % 0 mm
07:20 7.6 °C 6.1 °C 1018.5 hPa NNE 2.6 km/h 3.7 km/h 90 % 0 mm
07:25 7.9 °C 6.2 °C 1018.5 hPa NE 4 km/h 7.4 km/h 89 % 0 mm
07:30 8.2 °C 6.5 °C 1018.5 hPa NNE 5.6 km/h 7.4 km/h 89 % 0 mm
07:35 8.5 °C 6.4 °C 1018.5 hPa NNE 2.7 km/h 3.7 km/h 87 % 0 mm
07:40 8.8 °C 6.6 °C 1018.5 hPa NNE 1.1 km/h 5.6 km/h 86 % 0 mm
07:42 8.9 °C 6.7 °C 1018.8 hPa North 4.2 km/h 7.4 km/h 86 % 0 mm
07:47 9.1 °C 6.4 °C 1018.8 hPa NNE 3.2 km/h 5.6 km/h 83 % 0 mm
07:52 9.3 °C 6.6 °C 1018.8 hPa NNE 5 km/h 8 km/h 83 % 0 mm
07:57 9.5 °C 6.6 °C 1018.8 hPa NNE 4.8 km/h 7.4 km/h 82 % 0 mm
08:02 9.7 °C 6.7 °C 1018.8 hPa North 1.4 km/h 3.7 km/h 82 % 0 mm
08:07 9.8 °C 6.5 °C 1018.8 hPa North 2.9 km/h 5.6 km/h 80 % 0 mm
08:12 9.8 °C 6.7 °C 1018.8 hPa Calm   1.9 km/h 81 % 0 mm
08:17 9.8 °C 6.4 °C 1019.2 hPa North 4.8 km/h 7.4 km/h 79 % 0 mm
08:22 9.8 °C 6.4 °C 1018.8 hPa NNW 4 km/h 5.6 km/h 79 % 0 mm
08:27 9.9 °C 6.4 °C 1018.8 hPa North 1.4 km/h 3.7 km/h 79 % 0 mm
08:32 9.9 °C 6.3 °C 1018.8 hPa NW 3.9 km/h 5.6 km/h 78 % 0 mm
08:37 10.1 °C 6.2 °C 1018.8 hPa NNW 2.9 km/h 5.6 km/h 77 % 0 mm
08:43 10.2 °C 6.2 °C 1019.2 hPa NNW 2.3 km/h 5.6 km/h 76 % 0 mm
08:48 10.4 °C 6.2 °C 1018.8 hPa North 3.9 km/h 5.6 km/h 75 % 0 mm
08:53 10.7 °C 6.8 °C 1019.2 hPa ENE 1.9 km/h 6.4 km/h 77 % 0 mm
09:03 11.2 °C 6.9 °C 1019.2 hPa NNE 1.4 km/h 5.6 km/h 75 % 0 mm
09:08 11.6 °C 7.3 °C 1019.2 hPa NNW 2.1 km/h 5.6 km/h 75 % 0 mm
09:13 11.8 °C 6.7 °C 1019.2 hPa NW 1.9 km/h 5.6 km/h 71 % 0 mm
09:18 12.1 °C 7.2 °C 1019.2 hPa NNW 0.8 km/h 5.6 km/h 72 % 0 mm
09:23 12.2 °C 6.9 °C 1019.2 hPa NNW 1.9 km/h 5.6 km/h 70 % 0 mm
09:28 12.3 °C 7.4 °C 1019.2 hPa NNW 2.4 km/h 4.8 km/h 72 % 0 mm
09:33 12.6 °C 7.2 °C 1019.2 hPa NNE 3.5 km/h 5.6 km/h 70 % 0 mm
09:43 13 °C 7.2 °C 1019.2 hPa NNE 2.9 km/h 5.6 km/h 68 % 0 mm
09:48 13.3 °C 7.3 °C 1019.2 hPa ENE 2.7 km/h 5.6 km/h 67 % 0 mm
09:53 13.4 °C 6.3 °C 1019.2 hPa ENE 2.4 km/h 7.4 km/h 62 % 0 mm
09:58 13.4 °C 6.7 °C 1019.2 hPa NE 1.4 km/h 4.8 km/h 64 % 0 mm
10:03 13.6 °C 6.2 °C 1019.2 hPa ENE 4 km/h 5.6 km/h 61 % 0 mm
10:08 13.6 °C 7.1 °C 1019.2 hPa East 3.1 km/h 5.6 km/h 65 % 0 mm
10:13 13.6 °C 6.4 °C 1019.2 hPa NE 1.6 km/h 3.7 km/h 62 % 0 mm
10:18 13.8 °C 7.6 °C 1019.2 hPa NNE 2.3 km/h 5.6 km/h 66 % 0 mm
10:23 14.2 °C 7.2 °C 1018.8 hPa ENE 0.8 km/h 5.6 km/h 63 % 0 mm
10:28 14.3 °C 6.7 °C 1019.2 hPa ENE 2.3 km/h 5.6 km/h 60 % 0 mm
10:33 14.3 °C 6.4 °C 1018.8 hPa East 1.4 km/h 7.4 km/h 59 % 0 mm
10:35 14.3 °C 6.2 °C 1019.2 hPa ENE 3.5 km/h 7.4 km/h 58 % 0 mm
10:40 14.3 °C 5.6 °C 1019.2 hPa ENE 3.2 km/h 5.6 km/h 56 % 0 mm
10:45 14.3 °C 5.9 °C 1019.2 hPa ESE 1.9 km/h 4.8 km/h 57 % 0 mm
10:50 14.4 °C 6.3 °C 1019.2 hPa NE 2.3 km/h 3.7 km/h 58 % 0 mm
10:55 14.6 °C 6.9 °C 1018.8 hPa ENE 5 km/h 6.4 km/h 60 % 0 mm
11:00 14.8 °C 7.8 °C 1019.2 hPa ENE 3.2 km/h 5.6 km/h 63 % 0 mm
11:05 15.1 °C 6.6 °C 1018.8 hPa ENE 2.9 km/h 5.6 km/h 57 % 0 mm
11:10 15.1 °C 6.7 °C 1019.2 hPa ENE 3.4 km/h 5.6 km/h 57 % 0 mm
11:15 15.3 °C 6 °C 1018.8 hPa NE 3.2 km/h 5.6 km/h 54 % 0 mm
11:20 15.4 °C 6.7 °C 1019.2 hPa ENE 1.1 km/h 3.7 km/h 56 % 0 mm
11:25 15.5 °C 7.3 °C 1019.2 hPa ENE 2.3 km/h 5.6 km/h 58 % 0 mm
11:30 15.7 °C 7.4 °C 1019.2 hPa ENE 6 km/h 8 km/h 58 % 0 mm
11:35 15.6 °C 6.3 °C 1019.2 hPa NNE 5.3 km/h 9.3 km/h 54 % 0 mm
11:40 15.8 °C 5.4 °C 1019.2 hPa ENE 2.6 km/h 7.4 km/h 50 % 0 mm
11:45 15.8 °C 6.2 °C 1019.2 hPa ENE 3.4 km/h 5.6 km/h 53 % 0 mm
11:50 15.7 °C 7.2 °C 1019.2 hPa NE 2.7 km/h 5.6 km/h 57 % 0 mm
11:55 15.7 °C 5.3 °C 1019.2 hPa NE 1.4 km/h 5.6 km/h 50 % 0 mm
12:00 15.7 °C 7.2 °C 1018.8 hPa NE 1.3 km/h 3.7 km/h 57 % 0 mm
12:05 16.4 °C 8.3 °C 1018.8 hPa North 0.5 km/h 3.2 km/h 59 % 0 mm
12:11 16.8 °C 6.9 °C 1018.8 hPa NNE 1.3 km/h 3.7 km/h 52 % 0 mm
12:16 16.8 °C 7.7 °C 1018.8 hPa NNE 4.2 km/h 6.4 km/h 55 % 0 mm
12:21 17.2 °C 8.1 °C 1018.5 hPa NNE 2.7 km/h 3.7 km/h 55 % 0 mm
12:26 17.6 °C 7.9 °C 1018.8 hPa NNE 2.3 km/h 3.7 km/h 53 % 0 mm
12:31 17.8 °C 6.6 °C 1018.5 hPa North 0.5 km/h 3.7 km/h 48 % 0 mm
12:36 17.7 °C 6.6 °C 1018.5 hPa NE 0.6 km/h 5.6 km/h 48 % 0 mm
12:41 18 °C 7.4 °C 1018.8 hPa NNW 1 km/h 5.6 km/h 50 % 0 mm
12:46 18.1 °C 7.2 °C 1018.8 hPa NNE 1 km/h 3.7 km/h 49 % 0 mm
12:51 18.1 °C 6.3 °C 1018.8 hPa West 13.2 km/h 14.8 km/h 46 % 0 mm
12:56 17.7 °C 7.7 °C 1018.8 hPa WSW 1.6 km/h 5.6 km/h 52 % 0 mm
13:01 17.8 °C 5.7 °C 1018.8 hPa WSW 2.4 km/h 5.6 km/h 45 % 0 mm
13:04 17.7 °C 6.3 °C 1018.8 hPa WSW 2.6 km/h 6.4 km/h 47 % 0 mm
13:09 17.6 °C 5.5 °C 1018.5 hPa WNW 4 km/h 5.6 km/h 45 % 0 mm
13:14 17.7 °C 5.9 °C 1018.5 hPa WNW 4.7 km/h 9.7 km/h 46 % 0 mm
13:19 17.5 °C 5.7 °C 1018.5 hPa West 0.8 km/h 3.7 km/h 46 % 0 mm
13:24 17.8 °C 7.2 °C 1018.5 hPa WSW 1.9 km/h 3.7 km/h 50 % 0 mm
13:30 18.1 °C 7.4 °C 1018.5 hPa WNW 1.6 km/h 4.8 km/h 50 % 0 mm
13:46 18.2 °C 6.7 °C 1018.2 hPa West 1.6 km/h 3.2 km/h 47 % 0 mm
13:51 18.3 °C 6.4 °C 1018.2 hPa SSW 1.9 km/h 6.4 km/h 46 % 0 mm
13:56 18.3 °C 5.5 °C 1018.2 hPa SW 2.6 km/h 5.6 km/h 43 % 0 mm
14:01 18.3 °C 5.5 °C 1018.2 hPa WSW 2.4 km/h 7.4 km/h 43 % 0 mm
14:06 18.3 °C 6.4 °C 1018.2 hPa NW 0.5 km/h 3.7 km/h 46 % 0 mm
14:11 18.6 °C 5.4 °C 1018.2 hPa SW 6.4 km/h 7.4 km/h 42 % 0 mm
14:16 18.7 °C 6.2 °C 1017.8 hPa SW 0.3 km/h 1.9 km/h 44 % 0 mm
14:18 18.7 °C 6.8 °C 1017.8 hPa SW 0.6 km/h 3.7 km/h 46 % 0 mm
14:28 18.8 °C 6.9 °C 1017.8 hPa ENE 3.9 km/h 6.4 km/h 46 % 0 mm
14:33 18.7 °C 5.8 °C 1017.2 hPa ENE 2.6 km/h 6.4 km/h 43 % 0 mm
14:38 18.5 °C 6.9 °C 1017.2 hPa NE 3.5 km/h 5.6 km/h 47 % 0 mm
14:39 18.6 °C 6.7 °C 1017.2 hPa NNE 2.7 km/h 5.6 km/h 46 % 0 mm
14:44 18.5 °C 5.7 °C 1017.2 hPa ENE 5.3 km/h 9.3 km/h 43 % 0 mm
14:49 18.3 °C 5.8 °C 1017.2 hPa NE 3.4 km/h 5.6 km/h 44 % 0 mm
14:54 18.2 °C 7.3 °C 1017.2 hPa NNE 1.9 km/h 5.6 km/h 49 % 0 mm
14:59 18.2 °C 5.7 °C 1017.2 hPa ENE 5.5 km/h 7.4 km/h 44 % 0 mm
15:04 18.2 °C 7.3 °C 1017.2 hPa NE 2.9 km/h 8 km/h 49 % 0 mm
15:09 17.8 °C 5 °C 1017.2 hPa ENE 4.5 km/h 5.6 km/h 43 % 0 mm
15:14 17.6 °C 6.4 °C 1017.2 hPa North 2.7 km/h 5.6 km/h 48 % 0 mm
15:19 17.6 °C 5.8 °C 1017.2 hPa ENE 4.2 km/h 5.6 km/h 46 % 0 mm
15:24 17.5 °C 5.7 °C 1016.8 hPa NE 2.1 km/h 5.6 km/h 46 % 0 mm
15:29 17.5 °C 5.4 °C 1016.8 hPa ENE 0.6 km/h 3.7 km/h 45 % 0 mm
15:34 17.5 °C 4.8 °C 1016.8 hPa ENE 0.2 km/h 1.9 km/h 43 % 0 mm
15:39 17.5 °C 6.1 °C 1016.8 hPa SSW 2.9 km/h 7.4 km/h 47 % 0 mm
15:45 17.4 °C 6.8 °C 1016.8 hPa SSE 6.1 km/h 9.3 km/h 50 % 0 mm
15:50 17.1 °C 7.2 °C 1016.8 hPa SSE 5.8 km/h 16.7 km/h 52 % 0 mm
15:55 16.9 °C 7.8 °C 1016.8 hPa SSE 2.1 km/h 6.4 km/h 55 % 0 mm
16:00 16.8 °C 7.4 °C 1016.8 hPa SSW 7.1 km/h 11.1 km/h 54 % 0 mm
16:05 16.8 °C 8 °C 1016.8 hPa SW 2.4 km/h 8 km/h 56 % 0 mm
16:10 16.8 °C 7.4 °C 1016.8 hPa SSW 5.5 km/h 7.4 km/h 54 % 0 mm
16:15 16.8 °C 7.7 °C 1016.8 hPa WSW 2.4 km/h 5.6 km/h 55 % 0 mm
16:20 16.8 °C 7.7 °C 1016.8 hPa SSW 5 km/h 7.4 km/h 55 % 0 mm
16:25 16.8 °C 7.7 °C 1016.8 hPa SSW 3.5 km/h 7.4 km/h 55 % 0 mm
16:30 16.8 °C 7.4 °C 1016.8 hPa SW 2.7 km/h 5.6 km/h 54 % 0 mm
16:35 16.8 °C 7.7 °C 1016.8 hPa SSW 1.6 km/h 5.6 km/h 55 % 0 mm
16:40 16.8 °C 7.7 °C 1016.8 hPa SW 4 km/h 8 km/h 55 % 0 mm
16:45 16.8 °C 7.7 °C 1016.8 hPa SSW 3.5 km/h 9.3 km/h 55 % 0 mm
16:50 16.8 °C 7.4 °C 1016.8 hPa WSW 6.9 km/h 11.1 km/h 54 % 0 mm
16:55 16.8 °C 7.7 °C 1016.8 hPa SW 2.3 km/h 5.6 km/h 55 % 0 mm
17:00 16.7 °C 7.6 °C 1017.2 hPa SSW 4.5 km/h 6.4 km/h 55 % 0 mm
17:01 16.7 °C 7.6 °C 1017.2 hPa SSE 3.1 km/h 5.6 km/h 55 % 0 mm
17:06 16.6 °C 7.2 °C 1017.2 hPa SSW 6.3 km/h 13 km/h 54 % 0 mm
17:11 16.4 °C 7.1 °C 1017.2 hPa SSW 6 km/h 9.3 km/h 54 % 0 mm
17:16 16.3 °C 7.2 °C 1017.2 hPa South 1.8 km/h 11.1 km/h 55 % 0 mm
17:21 16.3 °C 7.2 °C 1017.2 hPa SE 4.2 km/h 7.4 km/h 55 % 0 mm
17:26 16.2 °C 7.1 °C 1017.2 hPa SSE 1.8 km/h 7.4 km/h 55 % 0 mm
17:31 16.1 °C 7 °C 1017.2 hPa SE 1.3 km/h 11.1 km/h 55 % 0 mm
17:36 15.8 °C 7 °C 1017.2 hPa SSE 7.2 km/h 17.7 km/h 56 % 0 mm
17:41 15.4 °C 6.4 °C 1017.2 hPa South 4.5 km/h 6.4 km/h 55 % 0 mm
17:46 15.3 °C 6.6 °C 1017.5 hPa SSW 3.5 km/h 7.4 km/h 56 % 0 mm
17:51 15.2 °C 6.8 °C 1017.5 hPa South 3.9 km/h 9.3 km/h 57 % 0 mm
17:56 15.1 °C 6.7 °C 1017.5 hPa SSW 9.3 km/h 11.1 km/h 57 % 0 mm
18:01 14.9 °C 6.5 °C 1017.5 hPa SSW 5.3 km/h 13 km/h 57 % 0 mm
18:06 14.8 °C 6.6 °C 1017.5 hPa South 6 km/h 9.3 km/h 58 % 0 mm
18:11 14.6 °C 6.4 °C 1017.5 hPa South 1.3 km/h 4.8 km/h 58 % 0 mm
18:16 14.4 °C 6.8 °C 1017.5 hPa South 6.1 km/h 13 km/h 60 % 0 mm
18:21 14.3 °C 6.6 °C 1017.2 hPa South 3.2 km/h 9.3 km/h 60 % 0 mm
18:26 14 °C 6.6 °C 1017.5 hPa SE 6.8 km/h 11.3 km/h 61 % 0 mm
18:31 13.7 °C 6.3 °C 1017.5 hPa SE 4.5 km/h 9.3 km/h 61 % 0 mm
18:36 13.5 °C 6.3 °C 1017.5 hPa SSW 5.3 km/h 12.9 km/h 62 % 0 mm
18:41 13.3 °C 6.2 °C 1017.5 hPa SSW 7.4 km/h 11.1 km/h 62 % 0 mm
18:46 13 °C 6.3 °C 1017.5 hPa South 4.8 km/h 9.3 km/h 64 % 0 mm
18:51 12.8 °C 6.1 °C 1017.5 hPa SSW 4.7 km/h 13 km/h 64 % 0 mm
18:56 12.6 °C 5.9 °C 1017.5 hPa SSW 8.9 km/h 18.5 km/h 64 % 0 mm
19:01 12.3 °C 5.9 °C 1017.5 hPa South 1.4 km/h 7.4 km/h 65 % 0 mm
19:06 12.2 °C 5.8 °C 1017.8 hPa South 3.9 km/h 16.7 km/h 65 % 0 mm
19:11 12 °C 5.6 °C 1017.5 hPa South 5.5 km/h 8 km/h 65 % 0 mm
19:16 11.8 °C 5.7 °C 1017.5 hPa South 4 km/h 9.3 km/h 66 % 0 mm
19:21 11.7 °C 5.3 °C 1017.8 hPa SW 1.6 km/h 6.4 km/h 65 % 0 mm
19:27 11.6 °C 5.4 °C 1017.8 hPa WSW 1 km/h 3.7 km/h 66 % 0 mm
19:32 11.4 °C 5.3 °C 1017.8 hPa South 3.5 km/h 11.1 km/h 66 % 0 mm
19:37 11.3 °C 5.4 °C 1017.8 hPa SSW 3.4 km/h 5.6 km/h 67 % 0 mm
19:38 11.3 °C 5.4 °C 1017.8 hPa SSW 4 km/h 7.4 km/h 67 % 0 mm
19:43 11.2 °C 5.3 °C 1017.8 hPa SSW 1.9 km/h 5.6 km/h 67 % 0 mm
19:48 11.1 °C 5.4 °C 1018.2 hPa SW 3.5 km/h 6.4 km/h 68 % 0 mm
19:53 10.9 °C 5.2 °C 1018.2 hPa South 1.8 km/h 9.3 km/h 68 % 0 mm
19:58 10.7 °C 5.3 °C 1018.2 hPa SSW 5.3 km/h 7.4 km/h 69 % 0 mm
20:03 10.6 °C 5.2 °C 1018.2 hPa South 1.8 km/h 11.1 km/h 69 % 0 mm
20:08 10.4 °C 5 °C 1018.2 hPa SW 4.5 km/h 9.7 km/h 69 % 0 mm
20:13 10.3 °C 5.1 °C 1018.2 hPa SSE 3.9 km/h 6.4 km/h 70 % 0 mm
20:18 10.3 °C 5.1 °C 1018.2 hPa South 7.9 km/h 14.8 km/h 70 % 0 mm
20:23 10.2 °C 4.9 °C 1018.2 hPa SSW 7.4 km/h 11.1 km/h 70 % 0 mm
20:28 10.1 °C 5.1 °C 1018.2 hPa SSW 5.1 km/h 9.3 km/h 71 % 0 mm
20:33 10 °C 5.2 °C 1018.2 hPa South 4.8 km/h 9.3 km/h 72 % 0 mm
20:38 9.9 °C 5.1 °C 1018.2 hPa South 4 km/h 11.1 km/h 72 % 0 mm
20:43 9.8 °C 5.2 °C 1018.2 hPa SSW 1.9 km/h 9.3 km/h 73 % 0 mm
20:48 9.8 °C 5.2 °C 1018.5 hPa South 2.3 km/h 6.4 km/h 73 % 0 mm
20:49 9.7 °C 5.1 °C 1018.5 hPa WSW 3.4 km/h 7.4 km/h 73 % 0 mm
20:54 9.7 °C 5.1 °C 1018.5 hPa SSW 4 km/h 11.1 km/h 73 % 0 mm
20:59 9.6 °C 5.2 °C 1018.5 hPa SSW 4.8 km/h 9.3 km/h 74 % 0 mm
21:04 9.6 °C 5.2 °C 1018.5 hPa SSW 1.4 km/h 5.6 km/h 74 % 0 mm
21:07 9.6 °C 5.2 °C 1018.5 hPa SSW 5.3 km/h 11.1 km/h 74 % 0 mm
21:12 9.6 °C 5.2 °C 1018.5 hPa SSW 4.3 km/h 11.1 km/h 74 % 0 mm
21:17 9.5 °C 5.3 °C 1018.5 hPa SSW 1.1 km/h 7.4 km/h 75 % 0 mm
21:22 9.4 °C 5.2 °C 1018.8 hPa SW 5 km/h 9.3 km/h 75 % 0 mm
21:27 9.4 °C 5.4 °C 1018.8 hPa SW 5 km/h 7.4 km/h 76 % 0 mm
21:32 9.4 °C 5.6 °C 1018.8 hPa SW 5 km/h 14.8 km/h 77 % 0 mm
21:37 9.3 °C 5.5 °C 1019.2 hPa WSW 4 km/h 8 km/h 77 % 0 mm
21:42 9.3 °C 5.4 °C 1019.2 hPa WSW 1.8 km/h 5.6 km/h 77 % 0 mm
21:47 9.3 °C 5.6 °C 1019.2 hPa West 3.9 km/h 5.6 km/h 78 % 0 mm
21:52 9.2 °C 5.6 °C 1019.2 hPa WSW 4 km/h 9.7 km/h 78 % 0 mm
21:57 9.2 °C 5.8 °C 1019.2 hPa WSW 2.3 km/h 5.6 km/h 79 % 0 mm
22:02 9.2 °C 5.7 °C 1019.2 hPa Calm   1.9 km/h 79 % 0 mm
22:07 9.2 °C 5.7 °C 1019.2 hPa Calm     79 % 0 mm
22:12 9.1 °C 5.7 °C 1018.8 hPa WSW 2.6 km/h 5.6 km/h 79 % 0 mm
22:17 9.1 °C 5.8 °C 1019.2 hPa WSW 2.1 km/h 3.7 km/h 80 % 0 mm
22:22 9.1 °C 5.8 °C 1019.2 hPa Calm   5.6 km/h 80 % 0 mm
22:27 9.1 °C 5.8 °C 1019.2 hPa WSW 1.4 km/h 3.7 km/h 80 % 0 mm
22:32 9 °C 5.7 °C 1019.2 hPa WSW 1 km/h 3.7 km/h 80 % 0 mm
22:37 8.9 °C 5.8 °C 1019.2 hPa WSW 0.2 km/h 1.9 km/h 81 % 0 mm
22:42 8.9 °C 5.8 °C 1019.2 hPa WSW 1.3 km/h 4.8 km/h 81 % 0 mm
22:48 8.8 °C 5.7 °C 1019.5 hPa WSW 0.6 km/h 3.7 km/h 81 % 0 mm
22:53 8.8 °C 5.9 °C 1019.5 hPa SW 1.3 km/h 3.7 km/h 82 % 0 mm
22:58 8.8 °C 6.1 °C 1019.5 hPa SW 2.1 km/h 5.6 km/h 83 % 0 mm
23:03 8.7 °C 6 °C 1019.5 hPa SW 1.4 km/h 3.7 km/h 83 % 0 mm
23:08 8.7 °C 5.9 °C 1019.5 hPa WSW 5 km/h 5.6 km/h 83 % 0 mm
23:13 8.7 °C 5.9 °C 1019.2 hPa Calm   5.6 km/h 83 % 0 mm
23:18 8.6 °C 5.9 °C 1019.5 hPa WSW 1.3 km/h 3.7 km/h 83 % 0 mm
23:23 8.6 °C 6.1 °C 1019.5 hPa Calm   1.9 km/h 84 % 0 mm
23:28 8.6 °C 6 °C 1019.5 hPa Calm   3.7 km/h 84 % 0 mm
23:33 8.6 °C 6 °C 1019.5 hPa Calm     84 % 0 mm
23:38 8.5 °C 6.1 °C 1019.2 hPa Calm     85 % 0 mm
23:48 8.4 °C 5.9 °C 1019.2 hPa Calm     84 % 0 mm
23:53 8.3 °C 5.8 °C 1019.2 hPa Calm     84 % 0 mm
23:58 8.3 °C 5.9 °C 1019.2 hPa Calm     85 % 0 mm
Crab Meadow Weather
Compliments of Weather Underground - 3 mb

Script developed by  Jim McMurry - jmcmurry@mwt.net Adapted for the template by  Wim van der Kuil - Leuven-Template.eu

Barometer: A barometer is an instrument used to measure atmospheric pressure. A barometer is commonly used for weather prediction, as high air pressure in a region indicates fair weather while low pressure indicates that storms are more likely. When used in combination with wind observations, reasonably accurate short-term forecasts can be made.